createdAt,value
2018-03-17T00:00:01.203Z,78.70
2018-03-17T00:02:29.371Z,78.30
2018-03-17T00:04:57.424Z,78.20
2018-03-17T00:07:25.272Z,77.90
2018-03-17T00:09:54.023Z,77.80
2018-03-17T00:12:21.868Z,77.70
2018-03-17T00:14:49.682Z,77.90
2018-03-17T00:17:17.521Z,77.60
2018-03-17T00:19:45.656Z,77.80
2018-03-17T00:22:13.526Z,77.80
2018-03-17T00:24:41.409Z,78.30
2018-03-17T00:27:09.248Z,78.20
2018-03-17T00:29:37.176Z,78.50
2018-03-17T00:32:05.798Z,77.80
2018-03-17T00:34:33.715Z,77.80
2018-03-17T00:37:01.865Z,78.10
2018-03-17T00:39:30.540Z,78.60
2018-03-17T00:41:58.429Z,78.40
2018-03-17T00:44:26.267Z,78.60
2018-03-17T00:46:54.880Z,78.10
2018-03-17T00:49:23.657Z,78.40
2018-03-17T00:51:51.541Z,78.40
2018-03-17T00:54:19.605Z,78.30
2018-03-17T00:56:48.232Z,78.30
2018-03-17T00:59:16.044Z,78.30
2018-03-17T01:01:43.937Z,78.30
2018-03-17T01:04:11.973Z,78.70
2018-03-17T01:06:40.576Z,78.80
2018-03-17T01:09:08.569Z,78.80
2018-03-17T01:11:36.636Z,78.50
2018-03-17T01:14:05.332Z,78.20
2018-03-17T01:16:33.137Z,78.10
2018-03-17T01:19:01.943Z,78.70
2018-03-17T01:21:29.762Z,78.60
2018-03-17T01:23:59.116Z,78.30
2018-03-17T01:26:27.111Z,78.20
2018-03-17T01:28:54.928Z,78.60
2018-03-17T01:31:23.544Z,78.40
2018-03-17T01:33:51.369Z,78.30
2018-03-17T01:36:19.218Z,78.30
2018-03-17T01:38:47.030Z,78.20
2018-03-17T01:41:15.716Z,78.60
2018-03-17T01:43:43.740Z,78.50
2018-03-17T01:46:11.559Z,78.20
2018-03-17T01:48:40.177Z,77.70
2018-03-17T01:51:08.010Z,77.70
2018-03-17T01:53:36.029Z,78.00
2018-03-17T01:56:03.860Z,78.40
2018-03-17T01:58:32.446Z,77.30
2018-03-17T02:01:00.288Z,77.20
2018-03-17T02:03:28.432Z,76.90
2018-03-17T02:05:57.087Z,76.40
2018-03-17T02:08:24.953Z,76.30
2018-03-17T02:10:53.567Z,77.30
2018-03-17T02:13:21.396Z,77.20
2018-03-17T02:15:49.426Z,76.80
2018-03-17T02:18:17.288Z,76.50
2018-03-17T02:20:46.124Z,77.00
2018-03-17T02:23:13.952Z,77.00
2018-03-17T02:25:42.544Z,77.10
2018-03-17T02:28:13.427Z,77.10
2018-03-17T02:30:41.268Z,77.90
2018-03-17T02:33:11.107Z,78.00
2018-03-17T02:35:39.906Z,77.80
2018-03-17T02:38:07.943Z,77.80
2018-03-17T02:40:35.849Z,77.70
2018-03-17T02:43:03.888Z,78.00
2018-03-17T02:45:32.616Z,78.00
2018-03-17T02:48:00.561Z,78.00
2018-03-17T02:50:28.426Z,77.70
2018-03-17T02:52:57.216Z,78.00
2018-03-17T02:55:26.117Z,77.90
2018-03-17T02:57:53.980Z,77.90
2018-03-17T03:00:22.108Z,78.20
2018-03-17T03:02:50.150Z,77.90
2018-03-17T03:05:18.033Z,78.00
2018-03-17T03:07:45.945Z,77.90
2018-03-17T03:10:13.804Z,78.30
2018-03-17T03:12:41.804Z,78.80
2018-03-17T03:15:10.446Z,79.20
2018-03-17T03:17:39.191Z,79.10
2018-03-17T03:20:07.999Z,78.80
2018-03-17T03:22:35.880Z,78.80
2018-03-17T03:25:03.902Z,79.00
2018-03-17T03:27:31.905Z,79.00
2018-03-17T03:30:01.036Z,79.30
2018-03-17T03:32:28.947Z,79.40
2018-03-17T03:34:59.119Z,79.30
2018-03-17T03:37:27.202Z,79.20
2018-03-17T03:39:55.044Z,79.20
2018-03-17T03:42:22.865Z,79.10
2018-03-17T03:44:50.756Z,79.00
2018-03-17T03:47:18.666Z,79.00
2018-03-17T03:49:46.672Z,78.90
2018-03-17T03:52:14.679Z,79.40
2018-03-17T03:54:42.608Z,78.90
2018-03-17T03:57:12.888Z,79.30
2018-03-17T03:59:40.709Z,79.20
2018-03-17T04:02:08.568Z,79.30
2018-03-17T04:04:36.592Z,79.80
2018-03-17T04:07:05.365Z,79.30
2018-03-17T04:09:33.468Z,79.30
2018-03-17T04:12:01.323Z,79.20
2018-03-17T04:14:29.168Z,79.70
2018-03-17T04:16:57.024Z,80.10
2018-03-17T04:19:24.852Z,80.00
2018-03-17T04:21:52.704Z,80.00
2018-03-17T04:24:21.388Z,80.00
2018-03-17T04:26:50.167Z,80.20
2018-03-17T04:29:18.843Z,80.10
2018-03-17T04:31:46.685Z,80.10
2018-03-17T04:34:14.556Z,80.20
2018-03-17T04:36:42.420Z,80.10
2018-03-17T04:39:10.292Z,79.80
2018-03-17T04:41:38.188Z,80.40
2018-03-17T04:44:06.134Z,81.20
2018-03-17T04:46:34.795Z,80.90
2018-03-17T04:49:02.656Z,80.80
2018-03-17T04:51:31.274Z,80.90
2018-03-17T04:53:59.112Z,80.80
2018-03-17T04:56:27.777Z,81.10
2018-03-17T04:58:55.603Z,81.10
2018-03-17T05:01:24.509Z,81.50
2018-03-17T05:03:52.440Z,81.50
2018-03-17T05:06:20.289Z,81.20
2018-03-17T05:08:48.202Z,81.20
2018-03-17T05:11:16.213Z,81.40
2018-03-17T05:13:44.061Z,81.70
2018-03-17T05:16:11.957Z,81.60
2018-03-17T05:18:39.814Z,81.10
2018-03-17T05:21:07.665Z,81.30
2018-03-17T05:23:35.500Z,81.10
2018-03-17T05:26:04.158Z,81.00
2018-03-17T05:28:32.849Z,80.80
2018-03-17T05:31:01.441Z,80.70
2018-03-17T05:33:29.458Z,80.70
2018-03-17T05:35:57.378Z,81.10
2018-03-17T05:38:25.438Z,81.20
2018-03-17T05:40:53.276Z,80.70
2018-03-17T05:43:21.190Z,80.10
2018-03-17T05:45:49.035Z,80.10
2018-03-17T05:48:17.389Z,79.70
2018-03-17T05:50:45.257Z,79.40
2018-03-17T05:53:13.296Z,79.10
2018-03-17T05:55:41.139Z,79.00
2018-03-17T05:58:09.144Z,79.40
2018-03-17T06:00:36.973Z,79.20
2018-03-17T06:03:04.884Z,79.50
2018-03-17T06:05:32.722Z,79.10
2018-03-17T06:08:02.064Z,78.20
2018-03-17T06:10:29.929Z,78.20
2018-03-17T06:12:57.922Z,77.80
2018-03-17T06:15:25.750Z,77.60
2018-03-17T06:17:53.608Z,77.00
2018-03-17T06:20:21.472Z,76.20
2018-03-17T06:22:49.395Z,75.00
2018-03-17T06:25:17.409Z,74.30
2018-03-17T06:27:46.539Z,74.70
2018-03-17T06:30:14.566Z,74.60
2018-03-17T06:32:45.231Z,74.80
2018-03-17T06:35:13.114Z,76.20
2018-03-17T06:37:40.924Z,74.80
2018-03-17T06:40:08.835Z,74.70
2018-03-17T06:42:37.464Z,68.10
2018-03-17T06:45:06.096Z,73.20
2018-03-17T06:47:33.915Z,72.40
2018-03-17T06:50:02.552Z,72.70
2018-03-17T06:52:30.443Z,65.50
2018-03-17T06:54:58.455Z,61.80
2018-03-17T06:57:27.048Z,59.70
2018-03-17T06:59:54.948Z,59.80
2018-03-17T07:02:22.780Z,58.50
2018-03-17T07:04:50.862Z,59.30
2018-03-17T07:07:19.508Z,64.90
2018-03-17T07:09:47.346Z,64.80
2018-03-17T07:12:15.163Z,67.00
2018-03-17T07:14:43.812Z,66.80
2018-03-17T07:17:11.667Z,66.70
2018-03-17T07:19:39.608Z,65.80
2018-03-17T07:22:07.451Z,65.90
2018-03-17T07:24:35.275Z,62.30
2018-03-17T07:27:03.165Z,56.60
2018-03-17T07:29:31.176Z,54.60
2018-03-17T07:31:59.022Z,53.20
2018-03-17T07:34:26.990Z,53.50
2018-03-17T07:36:54.854Z,54.60
2018-03-17T07:39:23.459Z,58.80
2018-03-17T07:41:51.279Z,58.70
2018-03-17T07:44:19.231Z,59.50
2018-03-17T07:46:47.057Z,61.30
2018-03-17T07:49:15.374Z,64.20
2018-03-17T07:51:43.256Z,66.20
2018-03-17T07:54:11.094Z,64.90
2018-03-17T07:56:38.921Z,63.00
2018-03-17T07:59:07.553Z,65.80
2018-03-17T08:01:35.372Z,65.80
2018-03-17T08:04:03.979Z,67.20
2018-03-17T08:06:31.788Z,66.10
2018-03-17T08:08:59.644Z,68.00
2018-03-17T08:11:28.413Z,59.50
2018-03-17T08:13:56.433Z,59.50
2018-03-17T08:16:24.257Z,60.10
2018-03-17T08:18:52.086Z,56.20
2018-03-17T08:21:19.934Z,54.80
2018-03-17T08:23:51.395Z,51.90
2018-03-17T08:26:19.198Z,49.70
2018-03-17T08:28:47.060Z,48.20
2018-03-17T08:31:14.868Z,47.10
2018-03-17T08:33:42.724Z,47.80
2018-03-17T08:36:10.553Z,49.10
2018-03-17T08:38:38.406Z,51.20
2018-03-17T08:41:06.984Z,54.30
2018-03-17T08:43:34.818Z,54.30
2018-03-17T08:46:02.728Z,56.00
2018-03-17T08:48:30.598Z,58.00
2018-03-17T08:50:59.202Z,59.40
2018-03-17T08:53:27.111Z,59.20
2018-03-17T08:55:54.934Z,57.70
2018-03-17T08:58:25.497Z,49.50
2018-03-17T09:00:53.358Z,49.50
2018-03-17T09:03:22.140Z,52.10
2018-03-17T09:05:50.721Z,52.20
2018-03-17T09:08:20.098Z,56.30
2018-03-17T09:10:47.991Z,56.30
2018-03-17T09:13:15.983Z,54.60
2018-03-17T09:15:43.838Z,57.00
2018-03-17T09:18:12.568Z,53.90
2018-03-17T09:20:40.413Z,53.90
2018-03-17T09:23:08.402Z,51.80
2018-03-17T09:25:37.605Z,49.60
2018-03-17T09:28:05.559Z,49.60
2018-03-17T09:30:33.429Z,49.60
2018-03-17T09:33:01.317Z,51.30
2018-03-17T09:35:29.140Z,51.90
2018-03-17T09:37:56.958Z,50.50
2018-03-17T09:40:25.003Z,51.40
2018-03-17T09:42:53.072Z,49.20
2018-03-17T09:45:20.943Z,51.00
2018-03-17T09:47:48.817Z,50.40
2018-03-17T09:50:16.643Z,52.90
2018-03-17T09:52:44.513Z,51.20
2018-03-17T09:55:12.420Z,52.60
2018-03-17T09:57:40.222Z,54.40
2018-03-17T10:00:08.161Z,53.50
2018-03-17T10:02:36.743Z,53.10
2018-03-17T10:05:05.334Z,53.10
2018-03-17T10:07:33.176Z,53.20
2018-03-17T10:10:01.165Z,56.10
2018-03-17T10:12:28.993Z,59.60
2018-03-17T10:14:59.242Z,61.50
2018-03-17T10:17:28.175Z,57.10
2018-03-17T10:19:56.008Z,57.00
2018-03-17T10:22:23.870Z,54.90
2018-03-17T10:24:51.735Z,53.20
2018-03-17T10:27:20.347Z,56.00
2018-03-17T10:29:48.211Z,55.60
2018-03-17T10:32:16.052Z,54.70
2018-03-17T10:34:44.308Z,55.00
2018-03-17T10:37:12.149Z,56.50
2018-03-17T10:39:40.910Z,58.00
2018-03-17T10:42:08.780Z,57.80
2018-03-17T10:44:36.830Z,59.30
2018-03-17T10:47:06.233Z,58.20
2018-03-17T10:49:34.865Z,55.50
2018-03-17T10:52:02.740Z,55.50
2018-03-17T10:54:30.544Z,54.70
2018-03-17T10:56:58.381Z,53.30
2018-03-17T10:59:29.599Z,53.90
2018-03-17T11:02:03.156Z,54.30
2018-03-17T11:04:31.101Z,51.70
2018-03-17T11:07:00.028Z,53.00
2018-03-17T11:09:27.841Z,53.00
2018-03-17T11:11:55.843Z,51.90
2018-03-17T11:14:23.733Z,53.70
2018-03-17T11:16:51.591Z,54.20
2018-03-17T11:19:20.172Z,55.10
2018-03-17T11:21:48.774Z,55.00
2018-03-17T11:24:17.576Z,52.70
2018-03-17T11:26:45.393Z,52.70
2018-03-17T11:29:13.278Z,52.90
2018-03-17T11:31:41.332Z,53.30
2018-03-17T11:34:09.290Z,53.00
2018-03-17T11:36:37.301Z,53.00
2018-03-17T11:39:06.651Z,53.40
2018-03-17T11:41:34.518Z,52.80
2018-03-17T11:44:03.092Z,55.20
2018-03-17T11:46:31.675Z,57.10
2018-03-17T11:49:00.294Z,57.00
2018-03-17T11:51:28.129Z,56.80
2018-03-17T11:53:55.954Z,57.60
2018-03-17T11:56:23.765Z,57.20
2018-03-17T11:58:51.801Z,57.40
2018-03-17T12:01:19.668Z,58.50
2018-03-17T12:03:47.503Z,59.00
2018-03-17T12:06:15.356Z,58.70
2018-03-17T12:08:43.224Z,60.20
2018-03-17T12:11:12.618Z,62.80
2018-03-17T12:13:40.520Z,63.90
2018-03-17T12:16:08.513Z,65.20
2018-03-17T12:18:36.368Z,64.80
2018-03-17T12:21:04.254Z,65.60
2018-03-17T12:23:32.089Z,67.30
2018-03-17T12:26:00.137Z,68.50
2018-03-17T12:28:28.758Z,68.60
2018-03-17T12:30:57.376Z,66.90
2018-03-17T12:33:26.220Z,65.70
2018-03-17T12:35:54.049Z,65.60
2018-03-17T12:38:22.849Z,70.90
2018-03-17T12:40:53.733Z,71.60
2018-03-17T13:25:14.847Z,18.80
2018-03-17T13:27:48.732Z,17.60
2018-03-17T13:32:56.909Z,22.70
2018-03-17T13:35:31.355Z,28.40
2018-03-17T13:37:59.234Z,32.20
2018-03-17T13:40:32.807Z,34.50
2018-03-17T13:43:00.659Z,36.90
2018-03-17T13:45:29.248Z,42.50
2018-03-17T13:47:57.096Z,42.50
2018-03-17T13:50:24.987Z,44.90
2018-03-17T13:52:54.335Z,45.60
2018-03-17T13:55:22.293Z,45.60
2018-03-17T13:57:50.145Z,46.90
2018-03-17T14:00:18.196Z,48.70
2018-03-17T14:02:46.034Z,49.10
2018-03-17T14:05:21.328Z,49.00
2018-03-17T14:07:49.938Z,50.50
2018-03-17T14:10:17.885Z,50.50
2018-03-17T14:12:45.728Z,49.10
2018-03-17T14:15:13.566Z,49.60
2018-03-17T14:17:45.036Z,49.30
2018-03-17T14:20:13.680Z,49.10
2018-03-17T14:22:42.316Z,49.40
2018-03-17T14:25:10.251Z,49.30
2018-03-17T14:27:38.077Z,48.90
2018-03-17T14:30:06.724Z,49.80
2018-03-17T14:32:34.574Z,49.80
2018-03-17T14:35:02.467Z,50.50
2018-03-17T14:37:30.333Z,49.60
2018-03-17T14:40:02.883Z,48.00
2018-03-17T14:42:31.480Z,48.90
2018-03-17T14:44:59.335Z,48.90
2018-03-17T14:47:27.227Z,49.50
2018-03-17T14:49:55.939Z,51.30
2018-03-17T14:52:23.977Z,51.20
2018-03-17T14:54:51.812Z,51.80
2018-03-17T14:57:19.632Z,51.70
2018-03-17T14:59:48.253Z,52.70
2018-03-17T15:02:21.645Z,52.70
2018-03-17T15:04:49.504Z,53.20
2018-03-17T15:07:17.364Z,54.60
2018-03-17T15:09:45.998Z,55.80
2018-03-17T15:12:14.409Z,56.40
2018-03-17T15:14:42.320Z,57.30
2018-03-17T15:17:10.285Z,56.70
2018-03-17T15:19:38.920Z,54.40
2018-03-17T15:22:06.949Z,54.30
2018-03-17T15:24:34.962Z,54.30
2018-03-17T15:27:07.249Z,54.70
2018-03-17T15:29:35.921Z,55.50
2018-03-17T15:32:03.960Z,55.40
2018-03-17T15:34:33.318Z,55.40
2018-03-17T15:37:01.190Z,55.40
2018-03-17T15:39:29.046Z,55.90
2018-03-17T15:44:15.393Z,99.90
2018-03-17T15:59:32.441Z,27.60
2018-03-17T16:02:03.532Z,27.60
2018-03-17T16:07:05.680Z,19.30
2018-03-17T16:09:36.505Z,16.40
2018-03-17T16:12:05.769Z,21.60
2018-03-17T16:14:34.270Z,21.40
2018-03-17T16:17:03.357Z,24.30
2018-03-17T16:19:31.733Z,28.80
2018-03-17T16:22:00.297Z,32.30
2018-03-17T16:24:28.719Z,36.00
2018-03-17T16:26:57.110Z,40.50
2018-03-17T16:29:25.477Z,43.70
2018-03-17T16:31:59.337Z,45.80
2018-03-17T16:34:27.928Z,48.30
2018-03-17T16:37:00.989Z,49.80
2018-03-17T16:39:29.357Z,51.30
2018-03-17T16:41:57.749Z,52.10
2018-03-17T16:44:26.155Z,53.20
2018-03-17T16:46:54.553Z,53.70
2018-03-17T16:49:22.913Z,54.00
2018-03-17T16:51:53.381Z,55.20
2018-03-17T16:54:27.241Z,55.20
2018-03-17T16:56:55.726Z,55.20
2018-03-17T16:59:24.129Z,55.70
2018-03-17T17:01:52.509Z,56.20
2018-03-17T17:04:21.700Z,56.40
2018-03-17T17:06:50.749Z,56.30
2018-03-17T17:09:19.225Z,56.30
2018-03-17T17:11:48.571Z,56.80
2018-03-17T17:14:16.953Z,56.70
2018-03-17T17:16:51.532Z,57.10
2018-03-17T17:19:25.337Z,57.00
2018-03-17T17:21:59.149Z,57.50
2018-03-17T17:24:33.749Z,57.70
2018-03-17T17:27:02.157Z,57.70
2018-03-17T17:29:31.325Z,58.00
2018-03-17T17:31:59.758Z,58.00
2018-03-17T17:34:28.901Z,58.20
2018-03-17T17:36:57.314Z,58.10
2018-03-17T17:39:25.694Z,58.40
2018-03-17T17:41:54.093Z,58.60
2018-03-17T17:44:23.281Z,59.20
2018-03-17T17:46:51.669Z,59.10
2018-03-17T17:49:20.053Z,59.30
2018-03-17T17:51:49.489Z,59.10
2018-03-17T17:54:18.660Z,59.10
2018-03-17T17:56:47.052Z,59.00
2018-03-17T17:59:15.455Z,58.90
2018-03-17T18:01:44.612Z,58.40
2018-03-17T18:04:13.259Z,58.30
2018-03-17T18:06:41.697Z,58.80
2018-03-17T18:09:15.450Z,58.70
2018-03-17T18:11:43.877Z,58.50
2018-03-17T18:14:12.706Z,58.40
2018-03-17T18:16:41.065Z,58.10
2018-03-17T18:19:09.448Z,58.10
2018-03-17T18:21:38.033Z,58.30
2018-03-17T18:24:06.534Z,58.20
2018-03-17T18:26:35.721Z,58.70
2018-03-17T18:29:04.124Z,58.70
2018-03-17T18:32:02.005Z,58.90
2018-03-17T18:34:31.639Z,58.80
2018-03-17T18:37:00.047Z,59.20
2018-03-17T18:39:28.467Z,59.20
2018-03-17T18:41:57.621Z,59.60
2018-03-17T18:44:26.191Z,59.40
2018-03-17T18:46:54.595Z,59.50
2018-03-17T18:49:23.045Z,59.90
2018-03-17T18:51:52.228Z,60.70
2018-03-17T18:54:20.845Z,60.40
2018-03-17T18:56:55.496Z,60.50
2018-03-17T18:59:29.337Z,60.50
2018-03-17T19:02:03.190Z,60.80
2018-03-17T19:04:32.517Z,61.80
2018-03-17T19:07:02.549Z,61.30
2018-03-17T19:09:30.994Z,61.20
2018-03-17T19:12:00.345Z,61.50
2018-03-17T19:14:28.719Z,61.50
2018-03-17T19:16:57.137Z,61.80
2018-03-17T19:19:25.557Z,61.60
2018-03-17T19:21:54.705Z,61.70
2018-03-17T19:24:28.547Z,61.60
2018-03-17T19:26:57.697Z,62.70
2018-03-17T19:29:26.557Z,62.50
2018-03-17T19:31:55.002Z,62.60
2018-03-17T19:34:23.385Z,63.30
2018-03-17T19:36:52.560Z,63.70
2018-03-17T19:39:21.148Z,63.70
2018-03-17T19:41:49.570Z,65.30
2018-03-17T19:44:18.145Z,65.50
2018-03-17T19:46:49.766Z,65.50
2018-03-17T19:49:18.136Z,65.50
2018-03-17T19:51:46.761Z,66.00
2018-03-17T19:54:15.236Z,65.70
2018-03-17T19:56:43.621Z,65.60
2018-03-17T19:59:12.077Z,66.20
2018-03-17T20:01:41.251Z,66.70
2018-03-17T20:04:09.638Z,66.70
2018-03-17T20:06:38.309Z,66.90
2018-03-17T20:09:12.137Z,66.90
2018-03-17T20:11:42.867Z,66.90
2018-03-17T20:14:25.886Z,67.00
2018-03-17T20:16:54.327Z,67.00
2018-03-17T20:19:22.701Z,66.80
2018-03-17T20:21:51.098Z,67.30
2018-03-17T20:24:21.039Z,67.10
2018-03-17T20:26:49.477Z,67.20
2018-03-17T20:29:17.904Z,67.50
2018-03-17T20:31:47.786Z,67.70
2018-03-17T20:34:17.158Z,67.50
2018-03-17T20:36:45.710Z,67.40
2018-03-17T20:39:14.133Z,67.50
2018-03-17T20:41:43.333Z,67.30
2018-03-17T20:44:11.748Z,67.20
2018-03-17T20:46:40.561Z,67.20
2018-03-17T20:49:08.953Z,66.90
2018-03-17T20:51:37.353Z,66.80
2018-03-17T20:54:07.363Z,66.80
2018-03-17T20:56:35.937Z,66.80
2018-03-17T20:59:04.532Z,66.60
2018-03-17T21:01:32.910Z,66.50
2018-03-17T21:04:02.258Z,66.50
2018-03-17T21:06:30.849Z,66.40
2018-03-17T21:08:59.435Z,65.90
2018-03-17T21:11:27.881Z,65.80
2018-03-17T21:13:56.253Z,65.80
2018-03-17T21:16:24.653Z,65.60
2018-03-17T21:18:53.096Z,65.80
2018-03-17T21:21:21.613Z,66.30
2018-03-17T21:23:50.961Z,66.10
2018-03-17T21:26:21.302Z,66.10
2018-03-17T21:28:49.866Z,66.00
2018-03-17T21:31:18.422Z,65.80
2018-03-17T21:33:46.934Z,65.70
2018-03-17T21:36:15.521Z,65.70
2018-03-17T21:38:49.246Z,65.80
2018-03-17T21:41:18.641Z,66.00
2018-03-17T21:43:47.127Z,65.80
2018-03-17T21:46:15.554Z,66.10
2018-03-17T21:48:44.114Z,65.60
2018-03-17T21:51:13.402Z,65.30
2018-03-17T21:53:42.010Z,65.20
2018-03-17T21:56:10.600Z,65.10
2018-03-17T21:58:39.190Z,65.10
2018-03-17T22:01:13.019Z,65.00
2018-03-17T22:03:41.419Z,65.20
2018-03-17T22:06:10.114Z,65.30
2018-03-17T22:08:38.591Z,65.60
2018-03-17T22:11:07.933Z,64.90
2018-03-17T22:13:36.389Z,64.90
2018-03-17T22:16:06.445Z,63.90
2018-03-17T22:18:34.840Z,63.90
2018-03-17T22:21:03.258Z,63.50
2018-03-17T22:23:35.213Z,62.50
2018-03-17T22:26:03.813Z,62.60
2018-03-17T22:28:32.365Z,62.50
2018-03-17T22:31:01.642Z,62.00
2018-03-17T22:33:30.067Z,62.00
2018-03-17T22:35:58.524Z,62.60
2018-03-17T22:38:27.845Z,62.50
2018-03-17T22:40:56.436Z,62.40
2018-03-17T22:43:24.833Z,62.50
2018-03-17T22:45:58.556Z,62.50
2018-03-17T22:48:30.568Z,62.50
2018-03-17T22:50:59.165Z,62.60
2018-03-17T22:53:27.610Z,62.10
2018-03-17T22:55:56.010Z,62.00
2018-03-17T22:58:25.196Z,61.60
2018-03-17T23:00:53.745Z,61.60
2018-03-17T23:03:22.130Z,61.20
2018-03-17T23:05:50.512Z,60.90
2018-03-17T23:08:20.437Z,61.00
2018-03-17T23:10:53.257Z,60.90
2018-03-17T23:13:21.657Z,60.90
2018-03-17T23:15:50.234Z,60.80
2018-03-17T23:18:18.689Z,60.60
2018-03-17T23:20:47.247Z,59.30
2018-03-17T23:23:15.656Z,58.90
2018-03-17T23:25:44.085Z,59.80
2018-03-17T23:28:12.515Z,60.30
2018-03-17T23:30:40.917Z,60.00
2018-03-17T23:33:15.441Z,60.50
2018-03-17T23:35:44.016Z,59.70
2018-03-17T23:38:13.531Z,59.10
2018-03-17T23:40:41.922Z,59.00
2018-03-17T23:43:10.353Z,59.70
2018-03-17T23:45:39.584Z,60.70
2018-03-17T23:48:08.003Z,60.60
2018-03-17T23:50:38.571Z,61.30
2018-03-17T23:53:06.964Z,61.20
2018-03-17T23:55:42.291Z,61.20
2018-03-17T23:58:10.708Z,61.10
